Time;durP1;ratioP1;P1;durP2;ratioP2;P2;SDS_P1;SDS_P2;PMS_P1;PMS_P2;Temp;Humidity;BMP_temperature;BMP_pressure;BME280_temperature;BME280_humidity;BME280_pressure;Samples;Min_cycle;Max_cycle;Signal;HPM_P1;HPM_P2
2022/09/20 00:00:41;;;;;;;7.28;2.83;;;9.40;99.90;;;;;;4972155;28;20046;-69
2022/09/20 00:03:08;;;;;;;12.15;2.60;;;9.40;99.90;;;;;;4970930;28;20132;-69
2022/09/20 00:05:36;;;;;;;10.13;2.60;;;9.40;99.90;;;;;;4971623;28;20046;-70
2022/09/20 00:08:04;;;;;;;7.90;2.67;;;9.40;99.90;;;;;;4955999;28;20042;-69
2022/09/20 00:10:34;;;;;;;16.60;2.20;;;9.40;99.90;;;;;;4985308;28;20054;-68
2022/09/20 00:13:01;;;;;;;7.75;2.40;;;9.40;99.90;;;;;;4969309;28;20515;-69
2022/09/20 00:15:27;;;;;;;10.00;1.85;;;9.40;99.90;;;;;;4988788;28;20117;-68
2022/09/20 00:17:52;;;;;;;6.28;2.40;;;9.30;99.90;;;;;;4966216;28;20165;-69
2022/09/20 00:20:18;;;;;;;3.90;1.75;;;9.30;99.90;;;;;;4959818;28;20424;-69
2022/09/20 00:22:44;;;;;;;7.78;2.30;;;9.30;99.90;;;;;;4951703;28;20039;-68
2022/09/20 00:25:10;;;;;;;9.05;2.13;;;9.30;99.90;;;;;;4972116;28;20050;-69
2022/09/20 00:27:35;;;;;;;7.90;2.45;;;9.20;99.90;;;;;;4939631;28;20034;-70
2022/09/20 00:30:01;;;;;;;7.07;2.03;;;9.20;99.90;;;;;;4972965;28;20061;-70
2022/09/20 00:32:27;;;;;;;9.82;2.70;;;9.10;99.90;;;;;;4986735;28;20149;-69
2022/09/20 00:35:08;;;;;;;9.20;2.20;;;9.10;99.90;;;;;;4940207;28;20034;-70
2022/09/20 00:37:35;;;;;;;11.55;2.85;;;9.00;99.90;;;;;;4973285;28;20042;-67
2022/09/20 00:40:03;;;;;;;11.38;2.38;;;9.00;99.90;;;;;;4958692;28;20053;-70
2022/09/20 00:42:30;;;;;;;7.38;2.22;;;8.90;99.90;;;;;;4987116;28;20153;-69
2022/09/20 00:45:00;;;;;;;8.70;2.08;;;8.90;99.90;;;;;;4969806;28;20077;-69
2022/09/20 00:47:54;;;;;;;12.50;2.00;;;8.90;99.90;;;;;;4971401;28;20039;-69
2022/09/20 00:50:37;;;;;;;8.90;2.08;;;8.80;99.90;;;;;;4988862;28;20038;-70
2022/09/20 00:53:08;;;;;;;7.10;2.00;;;8.80;99.90;;;;;;4985252;28;20054;-69
2022/09/20 00:55:39;;;;;;;6.78;2.10;;;8.70;99.90;;;;;;4971331;28;20089;-70
2022/09/20 00:58:06;;;;;;;10.25;2.22;;;8.70;99.90;;;;;;4986522;28;20773;-69
2022/09/20 01:00:32;;;;;;;7.75;2.40;;;8.50;99.90;;;;;;4939145;28;20491;-69
2022/09/20 01:03:02;;;;;;;8.93;2.38;;;8.50;99.90;;;;;;4955268;28;20049;-69
2022/09/20 01:05:28;;;;;;;12.88;2.42;;;8.40;99.90;;;;;;4971280;28;20039;-69
2022/09/20 01:07:55;;;;;;;6.15;1.95;;;8.40;99.90;;;;;;4954512;28;20542;-69
2022/09/20 01:10:21;;;;;;;11.07;2.25;;;8.40;99.90;;;;;;4974505;28;20042;-70
2022/09/20 01:12:49;;;;;;;8.93;2.00;;;8.30;99.90;;;;;;4937464;28;20046;-69
2022/09/20 01:15:15;;;;;;;7.82;2.20;;;8.30;99.90;;;;;;4957024;28;20081;-69
2022/09/20 01:17:46;;;;;;;7.72;2.35;;;8.20;99.90;;;;;;4970273;28;20500;-70
2022/09/20 01:20:15;;;;;;;9.77;2.03;;;8.20;99.90;;;;;;4979514;28;20038;-69
2022/09/20 01:22:46;;;;;;;10.50;2.17;;;8.20;99.90;;;;;;4978823;28;20039;-69
2022/09/20 01:25:19;;;;;;;7.75;2.20;;;8.10;99.90;;;;;;4980041;28;20038;-69
2022/09/20 01:27:46;;;;;;;;;;;8.10;99.90;;;;;;4971248;28;20373;-70
2022/09/20 01:30:20;;;;;;;6.72;2.50;;;8.10;99.90;;;;;;4987828;28;19932;-68
2022/09/20 01:32:55;;;;;;;7.10;2.33;;;8.10;99.90;;;;;;4969077;28;20415;-68
2022/09/20 01:35:24;;;;;;;8.70;2.15;;;8.10;99.90;;;;;;4986234;28;20041;-69
2022/09/20 01:38:08;;;;;;;8.00;2.30;;;8.10;99.90;;;;;;4953148;28;20408;-69
2022/09/20 01:41:24;;;;;;;7.25;2.15;;;8.00;99.90;;;;;;4970268;28;20566;-70
2022/09/20 01:44:06;;;;;;;11.77;2.65;;;8.00;99.90;;;;;;4954803;28;20429;-69
2022/09/20 01:46:34;;;;;;;5.72;1.85;;;8.00;99.90;;;;;;4987786;28;20077;-68
2022/09/20 01:49:14;;;;;;;8.38;1.80;;;8.00;99.90;;;;;;4953998;28;20113;-71
2022/09/20 01:52:07;;;;;;;8.63;2.08;;;8.00;99.90;;;;;;4969682;28;20073;-70
2022/09/20 01:54:33;;;;;;;;;;;8.00;99.90;;;;;;4971505;28;20038;-69
2022/09/20 01:57:27;;;;;;;9.07;2.45;;;8.00;99.90;;;;;;4952186;28;19924;-69
2022/09/20 02:00:19;;;;;;;10.55;1.85;;;8.00;99.90;;;;;;4969082;28;20247;-69
2022/09/20 02:03:08;;;;;;;6.13;2.10;;;8.00;99.90;;;;;;4970452;28;20046;-68
2022/09/20 02:05:46;;;;;;;6.35;2.15;;;7.90;99.90;;;;;;4967658;28;20053;-69
2022/09/20 02:08:40;;;;;;;8.95;1.75;;;7.90;99.90;;;;;;4966264;28;20065;-69
2022/09/20 02:11:13;;;;;;;10.18;2.05;;;7.90;99.90;;;;;;4983378;28;20117;-70
2022/09/20 02:14:23;;;;;;;11.15;2.20;;;7.90;99.90;;;;;;4974750;28;20500;-69
2022/09/20 02:16:54;;;;;;;5.50;2.05;;;8.00;99.90;;;;;;4941127;28;20042;-69
2022/09/20 02:19:50;;;;;;;7.43;1.90;;;8.00;99.90;;;;;;4969318;28;20124;-69
2022/09/20 02:22:23;;;;;;;12.95;2.28;;;8.00;99.90;;;;;;4970780;28;20062;-69
2022/09/20 02:24:52;;;;;;;17.98;2.75;;;8.00;99.90;;;;;;4970222;28;20547;-70
2022/09/20 02:27:39;;;;;;;6.18;2.25;;;7.90;99.90;;;;;;4953741;28;20046;-70
2022/09/20 02:30:20;;;;;;;7.13;2.28;;;7.90;99.90;;;;;;4952833;28;20039;-70
2022/09/20 02:33:12;;;;;;;7.90;2.00;;;8.00;99.90;;;;;;4970399;28;20088;-69
2022/09/20 02:35:59;;;;;;;8.32;2.00;;;8.00;99.90;;;;;;4969214;28;20414;-70
2022/09/20 02:38:36;;;;;;;5.03;1.95;;;8.00;99.90;;;;;;4971995;28;20447;-69
2022/09/20 02:41:18;;;;;;;7.63;2.55;;;8.00;99.90;;;;;;4971426;28;20046;-69
2022/09/20 02:43:50;;;;;;;6.10;1.90;;;8.00;99.90;;;;;;4968619;28;20416;-69
2022/09/20 02:46:24;;;;;;;9.88;2.38;;;8.00;99.90;;;;;;4951102;28;20101;-69
2022/09/20 02:49:27;;;;;;;7.47;2.20;;;8.00;99.90;;;;;;4968462;28;20241;-68
2022/09/20 02:52:16;;;;;;;9.80;2.50;;;8.00;99.90;;;;;;4984643;28;20062;-70
2022/09/20 02:55:12;;;;;;;6.15;2.10;;;8.00;99.90;;;;;;4960280;28;20056;-70
2022/09/20 02:57:58;;;;;;;11.43;2.47;;;8.00;99.90;;;;;;4969482;28;20054;-70
2022/09/20 03:00:49;;;;;;;7.57;2.20;;;7.90;99.90;;;;;;4969873;28;20042;-68
2022/09/20 03:03:44;;;;;;;9.05;2.53;;;8.00;99.90;;;;;;4969164;28;20034;-69
2022/09/20 03:06:29;;;;;;;9.77;2.40;;;8.00;99.90;;;;;;4984303;28;20030;-69
2022/09/20 03:08:59;;;;;;;6.13;1.90;;;8.00;99.90;;;;;;4971862;28;20039;-69
2022/09/20 03:11:28;;;;;;;12.05;2.25;;;8.00;99.90;;;;;;4986547;28;20093;-69
2022/09/20 03:14:14;;;;;;;11.82;2.50;;;8.00;99.90;;;;;;4974566;28;20045;-69
2022/09/20 03:16:46;;;;;;;9.13;2.33;;;8.00;99.90;;;;;;4963660;28;20486;-69
2022/09/20 03:19:42;;;;;;;12.23;2.88;;;8.00;99.90;;;;;;4958581;28;20856;-70
2022/09/20 03:22:45;;;;;;;9.73;2.20;;;8.00;99.90;;;;;;4949394;28;20089;-69
2022/09/20 03:25:45;;;;;;;8.70;2.40;;;8.00;99.90;;;;;;4969397;28;20057;-70
2022/09/20 03:28:25;;;;;;;8.18;2.40;;;8.00;99.90;;;;;;4983341;28;20602;-69
2022/09/20 03:31:12;;;;;;;9.82;2.20;;;8.00;99.90;;;;;;4974396;28;20038;-69
2022/09/20 03:34:01;;;;;;;9.95;2.08;;;8.00;99.90;;;;;;4970607;28;20038;-69
2022/09/20 03:36:45;;;;;;;5.30;1.83;;;8.00;99.90;;;;;;4982683;28;20042;-69
2022/09/20 03:39:32;;;;;;;12.35;3.42;;;8.00;99.90;;;;;;4975341;28;20050;-69
2022/09/20 03:42:03;;;;;;;8.55;2.95;;;8.00;99.90;;;;;;4988393;28;20110;-69
2022/09/20 03:44:35;;;;;;;6.50;1.90;;;7.90;99.90;;;;;;4989169;28;20558;-69
2022/09/20 03:47:39;;;;;;;11.38;2.00;;;8.00;99.90;;;;;;4989372;28;20046;-69
2022/09/20 03:50:11;;;;;;;6.35;1.77;;;8.00;99.90;;;;;;4956173;28;20054;-70
2022/09/20 03:52:53;;;;;;;8.63;2.22;;;8.00;99.90;;;;;;4975359;28;20058;-69
2022/09/20 03:55:40;;;;;;;9.43;1.80;;;8.00;99.90;;;;;;4972867;28;20116;-69
2022/09/20 03:58:11;;;;;;;8.60;2.35;;;8.10;99.90;;;;;;4973998;28;20121;-69
2022/09/20 04:00:53;;;;;;;10.32;2.75;;;8.10;99.90;;;;;;4973391;28;20065;-68
2022/09/20 04:03:46;;;;;;;5.83;2.07;;;8.10;99.90;;;;;;4973101;28;20034;-70
2022/09/20 04:06:37;;;;;;;6.32;1.83;;;8.10;99.90;;;;;;4972331;28;20293;-68
2022/09/20 04:09:31;;;;;;;7.95;1.90;;;8.00;99.90;;;;;;4972433;28;20538;-68
2022/09/20 04:12:25;;;;;;;7.57;1.90;;;8.00;99.90;;;;;;4973743;28;20399;-69
2022/09/20 04:15:22;;;;;;;7.00;2.08;;;8.00;99.90;;;;;;4972986;28;20034;-69
2022/09/20 04:18:02;;;;;;;6.75;2.83;;;8.10;99.90;;;;;;4969386;28;20129;-69
2022/09/20 04:20:49;;;;;;;7.60;1.58;;;8.10;99.90;;;;;;4987974;28;20443;-69
2022/09/20 04:23:53;;;;;;;9.25;2.17;;;8.00;99.90;;;;;;4988827;28;20100;-69
2022/09/20 04:26:31;;;;;;;10.52;2.30;;;8.10;99.90;;;;;;4985466;28;20042;-69
2022/09/20 04:29:08;;;;;;;8.07;1.85;;;8.00;99.90;;;;;;4969710;28;20408;-68
2022/09/20 04:31:55;;;;;;;10.48;2.83;;;8.00;99.90;;;;;;4987178;28;20034;-70
2022/09/20 04:36:27;;;;;;;7.80;1.80;;;8.00;99.90;;;;;;4971191;28;20061;-69
2022/09/20 04:37:32;;;;;;;6.97;2.08;;;8.00;99.90;;;;;;4971101;28;20425;-69
2022/09/20 04:40:36;;;;;;;8.27;2.30;;;8.00;99.90;;;;;;4986546;28;20050;-69
2022/09/20 04:43:21;;;;;;;9.13;2.20;;;8.00;99.90;;;;;;4966311;28;20059;-70
2022/09/20 04:45:56;;;;;;;7.80;2.25;;;8.00;99.90;;;;;;4973137;28;20041;-69
2022/09/20 04:48:47;;;;;;;9.63;2.22;;;8.00;99.90;;;;;;4988586;28;20479;-70
2022/09/20 04:51:46;;;;;;;8.80;2.22;;;8.00;99.90;;;;;;4989768;28;20046;-69
2022/09/20 04:54:18;;;;;;;9.95;2.40;;;8.00;99.90;;;;;;4970728;28;20069;-69
2022/09/20 04:57:22;;;;;;;8.70;2.22;;;8.00;99.90;;;;;;4989064;28;20045;-70
2022/09/20 05:00:03;;;;;;;7.60;2.15;;;8.00;99.90;;;;;;4984270;28;20038;-70
2022/09/20 05:02:41;;;;;;;13.80;2.30;;;8.10;99.90;;;;;;4988500;28;20149;-70
2022/09/20 05:05:44;;;;;;;12.23;2.58;;;8.00;99.90;;;;;;4975905;28;20039;-70
2022/09/20 05:09:02;;;;;;;10.30;2.90;;;8.00;99.90;;;;;;4990538;28;20039;-69
2022/09/20 05:11:33;;;;;;;7.22;2.40;;;8.10;99.90;;;;;;4952900;28;20145;-70
2022/09/20 05:14:30;;;;;;;8.75;2.30;;;8.00;99.90;;;;;;4971523;28;20038;-69
2022/09/20 05:17:21;;;;;;;9.55;2.30;;;8.00;99.90;;;;;;4974014;28;20045;-70
2022/09/20 05:20:05;;;;;;;12.48;2.55;;;8.10;99.90;;;;;;4970624;28;20209;-69
2022/09/20 05:22:58;;;;;;;6.28;2.42;;;8.10;99.90;;;;;;4969621;28;20050;-69
2022/09/20 05:25:43;;;;;;;5.40;2.20;;;8.10;99.90;;;;;;4989129;28;20129;-69
2022/09/20 05:28:20;;;;;;;4.57;2.03;;;8.10;99.90;;;;;;4967665;28;20038;-69
2022/09/20 05:30:50;;;;;;;8.63;2.67;;;8.10;99.90;;;;;;4988896;28;20156;-70
2022/09/20 05:33:38;;;;;;;5.70;1.90;;;8.20;99.90;;;;;;4988950;28;20086;-70
2022/09/20 05:36:29;;;;;;;4.60;2.05;;;8.20;99.90;;;;;;4985645;28;20045;-69
2022/09/20 05:39:35;;;;;;;6.95;2.22;;;8.20;99.90;;;;;;4990415;28;20050;-69
2022/09/20 05:42:38;;;;;;;7.80;2.20;;;8.20;99.90;;;;;;4971491;28;20080;-69
2022/09/20 05:45:16;;;;;;;3.95;2.40;;;8.30;99.90;;;;;;4972291;28;20038;-69
2022/09/20 05:47:51;;;;;;;6.65;2.15;;;8.30;99.90;;;;;;4967063;28;20122;-69
2022/09/20 05:50:25;;;;;;;7.32;2.67;;;8.40;99.90;;;;;;4971532;28;20474;-70
2022/09/20 05:53:29;;;;;;;7.07;2.33;;;8.40;99.90;;;;;;4972817;28;20556;-70
2022/09/20 05:56:27;;;;;;;10.10;2.50;;;8.50;99.90;;;;;;4969562;28;20043;-69
2022/09/20 05:59:11;;;;;;;7.35;2.85;;;8.50;99.90;;;;;;4902762;28;20147;-69
2022/09/20 06:02:02;;;;;;;5.78;2.60;;;8.60;99.90;;;;;;4961791;28;20034;-69
2022/09/20 06:04:57;;;;;;;7.15;2.65;;;8.60;99.90;;;;;;4982126;28;20038;-70
2022/09/20 06:08:01;;;;;;;11.90;2.67;;;8.70;99.90;;;;;;4950457;28;20117;-70
2022/09/20 06:10:32;;;;;;;6.05;2.63;;;8.80;99.90;;;;;;4945701;28;20068;-70
2022/09/20 06:13:33;;;;;;;5.60;1.80;;;8.90;99.90;;;;;;4969069;28;20160;-70
2022/09/20 06:16:03;;;;;;;4.80;2.15;;;9.00;99.90;;;;;;4944310;28;20062;-70
2022/09/20 06:19:04;;;;;;;7.55;2.40;;;9.10;99.90;;;;;;4985633;28;20085;-69
2022/09/20 06:21:50;;;;;;;11.18;2.22;;;9.20;99.90;;;;;;4991410;28;20042;-69
2022/09/20 06:24:52;;;;;;;5.75;1.80;;;9.30;99.90;;;;;;4998571;28;20086;-69
2022/09/20 06:27:25;;;;;;;5.22;2.28;;;9.30;99.90;;;;;;4967448;28;20070;-70
2022/09/20 06:29:57;;;;;;;;;;;9.40;99.90;;;;;;4971728;28;20170;-70
2022/09/20 06:32:23;;;;;;;6.15;1.80;;;9.50;99.90;;;;;;4974433;28;19926;-70
2022/09/20 06:34:49;;;;;;;7.78;2.28;;;9.60;99.90;;;;;;4970043;28;20510;-69
2022/09/20 06:43:29;;;;;;;6.07;2.45;;;10.00;99.90;;;;;;4987658;28;20105;-70
2022/09/20 06:45:55;;;;;;;10.05;3.20;;;10.10;99.90;;;;;;4967606;28;20120;-68
2022/09/20 06:48:21;;;;;;;6.60;2.13;;;10.20;99.90;;;;;;4951996;28;20480;-70
2022/09/20 06:50:47;;;;;;;5.35;2.40;;;10.30;99.90;;;;;;4940980;28;20039;-70
2022/09/20 06:53:18;;;;;;;2.58;1.85;;;10.40;99.90;;;;;;4975139;28;20062;-70
2022/09/20 06:55:45;;;;;;;4.20;2.47;;;10.40;99.90;;;;;;4956467;28;20862;-70
2022/09/20 06:58:11;;;;;;;9.02;3.05;;;10.50;99.90;;;;;;4993980;28;20083;-71
2022/09/20 07:00:38;;;;;;;6.63;1.90;;;10.50;99.90;;;;;;4987434;28;20154;-69
2022/09/20 07:03:05;;;;;;;7.55;2.08;;;10.50;99.90;;;;;;4974441;28;20055;-70
2022/09/20 07:05:30;;;;;;;7.22;1.73;;;10.50;99.90;;;;;;4959839;28;20098;-70
2022/09/20 07:07:57;;;;;;;3.75;1.92;;;10.60;99.90;;;;;;4976462;28;20113;-70
2022/09/20 07:10:27;;;;;;;4.95;1.95;;;10.60;99.90;;;;;;4960779;28;20038;-69
2022/09/20 07:12:58;;;;;;;6.25;2.00;;;10.60;99.90;;;;;;4973864;28;20042;-69
2022/09/20 07:15:25;;;;;;;5.70;1.80;;;10.60;99.90;;;;;;4960363;28;20039;-70
2022/09/20 07:17:51;;;;;;;7.80;1.80;;;10.60;99.90;;;;;;4969989;28;20152;-69
2022/09/20 07:20:18;;;;;;;7.63;1.92;;;10.60;99.90;;;;;;4961568;28;20577;-70
2022/09/20 07:22:44;;;;;;;5.78;2.00;;;10.50;99.90;;;;;;4986536;28;20042;-70
2022/09/20 07:25:10;;;;;;;9.00;2.10;;;10.50;99.90;;;;;;4981277;28;20423;-69
2022/09/20 07:27:36;;;;;;;5.40;1.80;;;10.50;99.90;;;;;;4988206;28;20053;-70
2022/09/20 07:30:01;;;;;;;4.03;1.77;;;10.50;99.90;;;;;;4945808;28;20052;-70
2022/09/20 07:32:27;;;;;;;13.85;3.05;;;10.50;99.90;;;;;;4992916;28;20377;-70
2022/09/20 07:34:54;;;;;;;5.03;1.90;;;10.60;99.90;;;;;;4960949;28;20065;-68
2022/09/20 07:37:20;;;;;;;7.20;1.60;;;10.80;99.90;;;;;;4990550;28;20038;-70
2022/09/20 07:39:45;;;;;;;6.05;2.00;;;11.10;99.90;;;;;;4990234;28;20117;-69
2022/09/20 07:42:12;;;;;;;7.10;2.10;;;11.30;99.90;;;;;;4977933;28;20036;-68
2022/09/20 07:44:41;;;;;;;3.58;1.35;;;11.50;99.90;;;;;;4981005;28;20049;-71
2022/09/20 07:47:13;;;;;;;7.75;1.50;;;11.60;99.90;;;;;;4964513;28;20053;-70
2022/09/20 07:49:39;;;;;;;3.97;1.45;;;11.70;99.90;;;;;;4975970;28;20046;-70
2022/09/20 07:52:04;;;;;;;7.18;1.98;;;11.80;99.90;;;;;;4976604;28;20050;-69
2022/09/20 07:54:30;;;;;;;5.25;1.40;;;11.90;99.90;;;;;;4984467;28;20047;-71
2022/09/20 07:56:56;;;;;;;7.03;1.70;;;12.10;99.90;;;;;;4974778;28;20038;-70
2022/09/20 07:59:23;;;;;;;7.22;2.00;;;12.10;99.90;;;;;;4942584;28;20097;-70
2022/09/20 08:01:48;;;;;;;5.57;1.98;;;12.10;99.90;;;;;;4977046;28;20496;-70
2022/09/20 08:04:14;;;;;;;4.78;1.95;;;12.20;99.90;;;;;;4960598;28;20303;-70
2022/09/20 08:06:43;;;;;;;5.00;1.83;;;12.40;99.90;;;;;;4996102;28;20042;-70
2022/09/20 08:09:10;;;;;;;3.88;1.55;;;12.70;99.90;;;;;;4960319;28;20478;-69
2022/09/20 08:11:38;;;;;;;5.53;1.70;;;12.80;99.90;;;;;;4961643;28;20113;-70
2022/09/20 08:14:04;;;;;;;5.63;1.65;;;13.00;99.90;;;;;;4962754;28;20046;-70
2022/09/20 08:16:31;;;;;;;7.57;2.20;;;13.20;99.90;;;;;;4960868;28;20431;-71
2022/09/20 08:18:59;;;;;;;7.97;2.03;;;13.40;99.90;;;;;;4966387;28;20039;-70
2022/09/20 08:21:27;;;;;;;4.40;1.33;;;13.40;99.90;;;;;;4976261;28;20062;-71
2022/09/20 08:23:53;;;;;;;4.70;2.13;;;13.40;99.90;;;;;;4974932;28;20050;-70
2022/09/20 08:26:23;;;;;;;3.15;1.40;;;13.50;99.90;;;;;;4977543;28;20101;-71
2022/09/20 08:28:55;;;;;;;4.70;1.20;;;13.40;99.90;;;;;;4993195;28;20399;-69
2022/09/20 08:31:23;;;;;;;3.08;0.95;;;13.30;99.90;;;;;;4974894;28;20064;-70
2022/09/20 08:33:50;;;;;;;4.43;1.00;;;13.30;99.90;;;;;;4960825;28;20085;-70
2022/09/20 08:36:24;;;;;;;3.53;1.02;;;13.20;99.90;;;;;;4971776;28;20118;-70
2022/09/20 08:38:51;;;;;;;1.85;0.90;;;13.20;99.90;;;;;;4989185;28;20042;-70
2022/09/20 08:41:26;;;;;;;6.07;1.02;;;13.20;99.90;;;;;;4958158;28;20046;-70
2022/09/20 08:44:15;;;;;;;4.05;0.90;;;13.10;99.90;;;;;;4992739;28;20030;-70
2022/09/20 08:46:46;;;;;;;1.85;0.88;;;13.20;99.90;;;;;;4977080;28;20030;-70
2022/09/20 08:49:24;;;;;;;4.18;1.13;;;13.20;99.90;;;;;;5019527;23;20049;-93
2022/09/20 08:51:50;;;;;;;3.83;1.15;;;13.20;99.90;;;;;;5024989;28;20033;-93
2022/09/20 08:54:17;;;;;;;4.97;1.00;;;13.30;99.90;;;;;;5024498;28;20383;-92
2022/09/20 08:56:47;;;;;;;4.95;1.30;;;13.30;99.90;;;;;;5020467;28;20040;-94
2022/09/20 08:59:18;;;;;;;2.33;0.80;;;13.30;99.90;;;;;;5042209;28;20080;-93
2022/09/20 09:01:49;;;;;;;3.88;1.05;;;13.30;99.90;;;;;;5045361;28;20033;-93
2022/09/20 09:04:22;;;;;;;2.92;1.20;;;13.30;99.90;;;;;;5010499;28;20036;-93
2022/09/20 09:06:49;;;;;;;3.55;1.08;;;13.40;99.90;;;;;;5040137;28;20037;-93
2022/09/20 09:09:22;;;;;;;0.65;0.60;;;13.40;99.90;;;;;;5013862;28;20037;-93
2022/09/20 09:11:49;;;;;;;2.22;1.02;;;13.40;99.90;;;;;;5026932;28;20037;-93
2022/09/20 09:14:48;;;;;;;2.38;0.90;;;13.50;99.90;;;;;;5026504;28;20041;-93
2022/09/20 09:17:28;;;;;;;2.60;0.65;;;13.60;99.90;;;;;;5009681;28;20033;-92
2022/09/20 09:19:56;;;;;;;3.80;0.93;;;13.60;99.90;;;;;;5007558;28;20511;-92
2022/09/20 09:22:38;;;;;;;4.20;1.77;;;13.70;99.90;;;;;;5038393;28;20037;-92
2022/09/20 09:25:13;;;;;;;3.03;1.15;;;13.80;99.90;;;;;;5040753;28;20037;-91
2022/09/20 09:27:57;;;;;;;1.73;0.75;;;13.90;99.90;;;;;;5039349;28;20049;-92
2022/09/20 09:30:27;;;;;;;3.08;1.00;;;13.90;99.90;;;;;;5027843;28;20518;-92
2022/09/20 09:33:14;;;;;;;5.78;1.40;;;14.00;99.90;;;;;;5060954;28;20041;-92
2022/09/20 09:35:40;;;;;;;3.50;1.10;;;14.10;99.90;;;;;;5024530;28;20090;-92
2022/09/20 09:38:20;;;;;;;2.78;1.15;;;14.30;99.90;;;;;;5024504;28;20045;-92
2022/09/20 09:40:52;;;;;;;5.85;1.95;;;14.60;99.90;;;;;;5040695;28;20039;-91
2022/09/20 09:43:27;;;;;;;3.95;1.00;;;14.90;99.90;;;;;;5022979;28;20042;-91
2022/09/20 09:45:54;;;;;;;2.67;1.05;;;15.10;99.90;;;;;;5021772;28;20033;-91
2022/09/20 09:48:31;;;;;;;4.93;1.00;;;15.30;99.90;;;;;;5002888;28;20043;-83
2022/09/20 09:51:10;;;;;;;3.10;1.10;;;15.30;99.90;;;;;;5043232;28;20053;-88
2022/09/20 09:53:38;;;;;;;4.22;1.00;;;15.50;99.90;;;;;;5030485;28;20115;-90
2022/09/20 09:56:16;;;;;;;3.13;1.20;;;15.50;99.90;;;;;;5019039;28;20144;-94
2022/09/20 09:59:09;;;;;;;4.40;1.30;;;15.70;99.90;;;;;;5033941;28;20040;-93
2022/09/20 10:01:47;;;;;;;2.40;0.90;;;15.80;99.90;;;;;;5050117;28;20059;-91
2022/09/20 10:04:24;;;;;;;8.65;1.48;;;15.90;99.90;;;;;;5021165;28;20161;-92
2022/09/20 10:06:56;;;;;;;5.32;1.60;;;15.80;99.90;;;;;;5035579;28;20037;-86
2022/09/20 10:09:35;;;;;;;5.63;1.35;;;15.80;99.90;;;;;;5036314;28;20041;-89
2022/09/20 10:12:16;;;;;;;5.88;1.73;;;15.80;99.90;;;;;;5021332;28;20068;-90
2022/09/20 10:15:36;;;;;;;4.00;1.30;;;15.70;99.90;;;;;;5049336;28;20049;-89
2022/09/20 10:18:17;;;;;;;4.07;1.00;;;15.60;99.90;;;;;;4996896;28;20479;-91
2022/09/20 10:21:37;;;;;;;4.03;1.20;;;15.40;99.90;;;;;;5020323;28;20037;-90
2022/09/20 10:24:22;;;;;;;2.47;1.00;;;15.40;99.90;;;;;;4940981;28;20346;-87
2022/09/20 10:26:55;;;;;;;5.18;1.00;;;15.40;99.90;;;;;;5000410;28;20062;-88
2022/09/20 10:29:57;;;;;;;3.97;1.35;;;15.30;99.90;;;;;;5029467;28;20044;-87
2022/09/20 10:32:41;;;;;;;5.80;1.52;;;15.20;99.90;;;;;;5009890;28;20806;-88
2022/09/20 10:35:13;;;;;;;5.55;1.13;;;15.10;99.90;;;;;;5003994;28;20072;-87
2022/09/20 10:38:00;;;;;;;3.28;1.10;;;15.00;99.90;;;;;;5009423;28;20029;-87
2022/09/20 10:43:46;;;;;;;3.80;1.20;;;14.90;99.90;;;;;;5009087;28;20045;-88
2022/09/20 10:46:39;;;;;;;7.05;1.63;;;14.80;99.90;;;;;;5013884;28;20045;-89
2022/09/20 10:49:26;;;;;;;3.05;0.90;;;14.70;99.90;;;;;;5011678;28;20746;-89
2022/09/20 10:52:13;;;;;;;5.50;1.17;;;14.40;99.90;;;;;;5024967;28;20135;-89
2022/09/20 10:55:02;;;;;;;4.15;1.63;;;14.20;99.90;;;;;;5011113;28;20137;-89
2022/09/20 10:58:00;;;;;;;3.72;1.30;;;14.10;99.90;;;;;;5040751;28;21044;-87
2022/09/20 11:00:44;;;;;;;5.28;1.02;;;13.90;99.90;;;;;;5029774;28;20246;-88
2022/09/20 11:03:35;;;;;;;6.47;1.40;;;13.80;99.90;;;;;;5028745;28;20094;-86
2022/09/20 11:06:05;;;;;;;3.53;1.20;;;13.70;99.90;;;;;;5030124;28;20482;-86
2022/09/20 11:08:34;;;;;;;9.00;1.67;;;13.70;99.90;;;;;;5028420;28;20056;-85
2022/09/20 11:11:25;;;;;;;5.10;1.90;;;13.80;99.90;;;;;;5029929;28;20409;-86
2022/09/20 11:14:12;;;;;;;4.22;1.02;;;13.90;99.90;;;;;;5018495;28;20179;-86
2022/09/20 11:16:49;;;;;;;5.88;1.40;;;13.90;99.90;;;;;;5034030;28;20063;-86
2022/09/20 11:19:34;;;;;;;3.83;1.20;;;14.00;99.90;;;;;;5033022;28;20044;-87
2022/09/20 11:22:07;;;;;;;9.82;1.83;;;14.00;99.90;;;;;;5019404;28;20453;-86
2022/09/20 11:25:01;;;;;;;2.40;0.95;;;14.10;99.90;;;;;;5038247;28;20094;-85
2022/09/20 11:27:57;;;;;;;4.25;0.63;;;14.30;99.90;;;;;;4997793;28;20053;-87
2022/09/20 11:30:23;;;;;;;6.07;1.30;;;14.50;99.90;;;;;;5049393;28;20044;-86
2022/09/20 11:32:56;;;;;;;5.43;1.13;;;14.80;99.90;;;;;;5036588;28;20048;-84
2022/09/20 11:35:37;;;;;;;4.45;1.05;;;15.00;99.90;;;;;;5036067;28;20549;-84
2022/09/20 11:38:15;;;;;;;4.93;1.55;;;15.10;99.90;;;;;;5036927;28;20037;-85
2022/09/20 11:40:46;;;;;;;4.07;1.55;;;15.10;99.90;;;;;;5034762;28;20436;-85
2022/09/20 11:43:14;;;;;;;6.82;1.30;;;15.10;99.90;;;;;;5035450;28;20198;-85
2022/09/20 11:45:42;;;;;;;7.30;1.70;;;15.10;99.90;;;;;;5053843;28;20094;-85
2022/09/20 11:48:28;;;;;;;4.45;1.40;;;15.00;99.90;;;;;;5040410;28;20037;-89
2022/09/20 11:51:13;;;;;;;4.00;1.05;;;14.90;99.90;;;;;;5039267;28;20037;-85
2022/09/20 11:54:01;;;;;;;5.80;1.58;;;15.00;99.90;;;;;;5038416;28;20040;-86
2022/09/20 11:56:30;;;;;;;7.25;1.58;;;15.30;99.90;;;;;;5038154;28;20049;-87
2022/09/20 11:59:06;;;;;;;3.70;1.10;;;15.60;99.90;;;;;;5039426;28;20369;-85
2022/09/20 12:01:35;;;;;;;6.05;1.08;;;15.90;99.90;;;;;;5036755;28;20045;-87
2022/09/20 12:04:21;;;;;;;7.60;1.38;;;16.00;99.90;;;;;;5025881;28;20049;-85
2022/09/20 12:07:00;;;;;;;5.32;0.98;;;16.20;99.90;;;;;;5038284;28;20374;-85
2022/09/20 12:09:31;;;;;;;3.97;1.25;;;16.30;99.90;;;;;;5039875;28;20106;-84
2022/09/20 12:11:58;;;;;;;2.33;0.95;;;16.50;99.90;;;;;;5040518;28;20087;-85
2022/09/20 12:14:31;;;;;;;4.28;1.15;;;16.60;99.90;;;;;;5023600;28;20040;-85
2022/09/20 12:16:57;;;;;;;6.95;1.33;;;16.60;99.90;;;;;;5040502;28;20071;-86
2022/09/20 12:19:32;;;;;;;3.58;1.13;;;16.60;99.90;;;;;;5023180;28;20040;-85
2022/09/20 12:21:57;;;;;;;4.30;1.10;;;16.50;99.90;;;;;;5020062;28;20037;-84
2022/09/20 12:24:31;;;;;;;3.92;1.40;;;16.40;99.90;;;;;;5037340;28;20044;-85
2022/09/20 12:27:05;;;;;;;3.28;0.90;;;16.50;99.90;;;;;;5055647;28;20059;-84
2022/09/20 12:29:31;;;;;;;2.78;1.10;;;16.50;99.90;;;;;;5034907;28;20583;-88
2022/09/20 12:32:01;;;;;;;8.75;1.17;;;16.60;99.90;;;;;;5037547;28;20048;-85
2022/09/20 12:34:33;;;;;;;7.00;1.80;;;16.50;99.90;;;;;;5054455;28;20040;-86
2022/09/20 12:36:59;;;;;;;5.28;1.13;;;16.50;99.90;;;;;;5036886;28;20121;-90
2022/09/20 12:39:26;;;;;;;4.45;1.30;;;16.50;99.90;;;;;;5038603;28;21431;-89
2022/09/20 12:41:56;;;;;;;2.83;0.90;;;16.50;99.90;;;;;;5042606;28;20040;-88
2022/09/20 12:44:46;;;;;;;4.82;1.48;;;16.60;99.90;;;;;;5021917;28;20128;-91
2022/09/20 12:47:11;;;;;;;5.93;1.27;;;16.70;99.90;;;;;;5052197;28;20098;-89
2022/09/20 12:52:56;;;;;;;3.75;1.10;;;17.20;99.90;;;;;;5054584;28;20033;-91
2022/09/20 12:55:40;;;;;;;5.70;1.38;;;17.10;99.90;;;;;;5042735;28;20057;-89
2022/09/20 12:58:18;;;;;;;5.93;1.35;;;17.00;99.90;;;;;;5039477;28;20048;-92
2022/09/20 13:00:46;;;;;;;2.80;1.13;;;16.80;99.90;;;;;;5038986;28;20032;-88
2022/09/20 13:03:33;;;;;;;6.15;1.30;;;16.50;99.90;;;;;;5036714;28;20036;-88
2022/09/20 13:06:09;;;;;;;3.85;1.17;;;16.40;99.90;;;;;;5039427;28;20045;-91
2022/09/20 13:09:03;;;;;;;9.80;1.92;;;16.20;99.90;;;;;;5044098;28;20047;-92
2022/09/20 13:11:51;;;;;;;5.47;1.40;;;16.00;99.90;;;;;;5043592;28;20044;-93
2022/09/20 13:14:25;;;;;;;2.58;1.02;;;15.90;99.50;;;;;;5049201;28;20044;-92
2022/09/20 13:17:06;;;;;;;5.50;1.48;;;15.80;99.90;;;;;;5050221;28;20058;-92
2022/09/20 13:19:39;;;;;;;9.18;1.33;;;15.70;99.90;;;;;;5034459;28;20136;-92
2022/09/20 13:22:17;;;;;;;5.50;1.40;;;15.70;99.90;;;;;;5054941;28;20032;-92
2022/09/20 13:24:48;;;;;;;6.03;1.27;;;15.70;99.90;;;;;;5034703;28;20043;-92
2022/09/20 13:27:33;;;;;;;4.63;1.38;;;15.70;99.90;;;;;;5029160;28;20054;-92
2022/09/20 13:30:25;;;;;;;6.63;1.38;;;15.60;99.90;;;;;;5035036;28;20037;-93
2022/09/20 13:32:51;;;;;;;6.88;1.70;;;15.60;99.90;;;;;;5043548;28;20039;-92
2022/09/20 13:35:18;;;;;;;4.63;1.58;;;15.70;99.90;;;;;;5053272;28;20123;-91
2022/09/20 13:37:44;;;;;;;6.43;1.45;;;15.90;99.90;;;;;;5050575;28;20031;-93
2022/09/20 13:40:35;;;;;;;2.95;1.60;;;16.10;99.90;;;;;;5052141;28;20040;-91
2022/09/20 13:43:14;;;;;;;3.58;1.33;;;16.20;99.10;;;;;;5043842;28;20059;-91
2022/09/20 13:45:44;;;;;;;9.43;1.83;;;16.50;99.60;;;;;;5033970;28;20401;-93
2022/09/20 13:48:09;;;;;;;6.15;1.67;;;16.70;99.90;;;;;;5020571;28;20082;-91
2022/09/20 13:50:37;;;;;;;5.07;1.13;;;16.80;99.90;;;;;;5009301;28;20134;-92
2022/09/20 13:53:14;;;;;;;3.90;1.52;;;16.70;99.40;;;;;;5015079;28;20131;-93
2022/09/20 13:55:42;;;;;;;4.43;1.38;;;16.50;99.20;;;;;;5029242;28;20371;-92
2022/09/20 13:58:32;;;;;;;5.13;1.20;;;16.40;99.50;;;;;;5018232;28;20037;-92